Airfield :
LOGIN :

Register | Disclaimer

   EN    FR    IT 

 










Legend :    VFR   Marginal VFR   IFR   Intensive IFR   Very Intensive IFR
Visi :
Ceiling :
>= 8 km
>= 3000ft
5 to 8 km
1000 to 3000 ft
1500m to 5 km
500 to 1000 ft
800 to 1500m
200 to 500 ft
< 800m
< 200 ft
Symbols :   Thunderstorms  Fog  Heavy snow  Heavy precipitations  Wind > 20 kt
SIGMETs :     Misc.  Thunderstorms  Icing  Turbulence  Mountain Waves  Volcanic Ashes






- Airport Elevation : 75 ft
- IATA code : YEO


EGDY - RNAS Yeovilton

CURRENT METAR :
  • 271550Z 22007KT 8000 -SHRA FEW010 SCT018TCU BKN025 12/10 Q1015 TEMPO 5000 SHRA SCT018TCU RMK WHT TEMPO WHT

EXPIRED METARs :
  • 271520Z 21008G19KT 9999 VCSH FEW010 SCT018TCU BKN025 14/09 Q1015 TEMPO 5000 SHRA SCT018TCU RMK WHT TEMPO WHT
  • 271450Z 24005KT 9999 -SHRA FEW010 SCT018TCU BKN025 13/10 Q1015 TEMPO 5000 SHRA SCT018TCU RMK WHT TEMPO WHT
  • 271420Z 21011KT 9999 VCSH FEW010 SCT018TCU BKN025 15/09 Q1015 TEMPO 5000 SHRA SCT018TCU RMK WHT TEMPO WHT
  • 271350Z 20008KT 9999 VCSH FEW010 SCT018TCU BKN025 14/10 Q1015 TEMPO 5000 SHRA SCT018TCU
  • 271320Z 22009KT 5000 SHRA FEW010 SCT016 BKN025 12/09 Q1015 TEMPO 5000 SHRA SCT018TCU RMK WHT TEMPO WHT
  • 271250Z 20006KT 9999 VCSH FEW010 SCT020 14/09 Q1015 TEMPO 5000 SHRA SCT018TCU RMK WHT TEMPO WHT
  • 271220Z AUTO 24004KT 9999 -RA SCT021/// SCT048/// BKN068/// 13/10 Q1015
  • 271150Z AUTO 30004KT 9999 -RA OVC020/// 13/09 Q1015
  • 271120Z AUTO 20004KT 9999 // FEW030/// SCT041/// BKN062/// 13/10 Q1015

TAF TAF EGDY
Valid from the 27 at 15:00 until the 28 at 00:00 UTC


271308Z 2715/2724 01010G20KT 9999 SCT030
TEMPO 2715/2718 5000 SHRA SCT022TCU
BECMG 2717/2719 21007KT
BECMG 2719/2721 7000 -RA BKN008
BECMG 2722/2724 3000 RADZ BR BKN006



MET'MAP, your aeronautical weather chart ! - Copyright ORBIFLY December 2007 - Disclaimer

ORBIFLY MET'MAP TEAM :

Programming & Development : Alexandra Zaïnal
Original concept : Baudouin d'Aumeries
Technical & hardware support : Manuel Goepfert
Assistance : Marc-Olivier Méhu




SOURCES & CREDITS :

   NOAA